Time;durP1;ratioP1;P1;durP2;ratioP2;P2;SDS_P1;SDS_P2;PMS_P1;PMS_P2;Temp;Humidity;BMP_temperature;BMP_pressure;BME280_temperature;BME280_humidity;BME280_pressure;Samples;Min_cycle;Max_cycle;Signal;HPM_P1;HPM_P2
2022/01/08 00:01:18;;;;;;;19.40;6.93;;;;;;;;;;5003800;28;20250;-77
2022/01/08 00:03:48;;;;;;;14.40;6.30;;;;;;;;;;5001370;28;20212;-77
2022/01/08 00:06:15;;;;;;;15.07;6.30;;;;;;;;;;5002316;28;20573;-77
2022/01/08 00:08:43;;;;;;;15.77;6.87;;;;;;;;;;5000117;28;20220;-77
2022/01/08 00:11:14;;;;;;;15.53;6.60;;;;;;;;;;4999039;28;20226;-77
2022/01/08 00:13:41;;;;;;;16.47;7.73;;;;;;;;;;5001466;28;20212;-77
2022/01/08 00:16:08;;;;;;;17.53;7.30;;;;;;;;;;4998294;28;20224;-77
2022/01/08 00:18:35;;;;;;;23.93;7.77;;;;;;;;;;5003523;28;20569;-76
2022/01/08 00:21:04;;;;;;;18.47;7.33;;;;;;;;;;5006934;28;20283;-77
2022/01/08 00:23:31;;;;;;;13.73;7.10;;;;;;;;;;4999203;28;20719;-76
2022/01/08 00:25:59;;;;;;;14.97;6.97;;;;;;;;;;5003866;28;20238;-76
2022/01/08 00:28:26;;;;;;;17.20;7.87;;;;;;;;;;4997485;28;20224;-77
2022/01/08 00:30:53;;;;;;;15.53;7.43;;;;;;;;;;5002324;28;20301;-77
2022/01/08 00:33:21;;;;;;;13.73;7.37;;;;;;;;;;4998506;28;20676;-77
2022/01/08 00:35:49;;;;;;;16.37;7.50;;;;;;;;;;5002250;28;20221;-77
2022/01/08 00:38:17;;;;;;;15.27;7.33;;;;;;;;;;5004478;28;20206;-77
2022/01/08 00:40:44;;;;;;;14.83;7.20;;;;;;;;;;5001667;28;20208;-77
2022/01/08 00:43:12;;;;;;;16.23;8.10;;;;;;;;;;5001344;28;20293;-76
2022/01/08 00:45:39;;;;;;;17.70;8.17;;;;;;;;;;4996232;28;20221;-77
2022/01/08 00:48:06;;;;;;;16.67;6.90;;;;;;;;;;4996984;28;20239;-77
2022/01/08 00:50:33;;;;;;;18.10;7.97;;;;;;;;;;5001296;28;20295;-77
2022/01/08 00:53:00;;;;;;;17.73;8.60;;;;;;;;;;4999762;28;20299;-77
2022/01/08 00:55:29;;;;;;;17.13;8.57;;;;;;;;;;5000786;28;20216;-77
2022/01/08 00:57:56;;;;;;;15.40;8.30;;;;;;;;;;5001904;28;20395;-77
2022/01/08 01:00:23;;;;;;;16.07;8.53;;;;;;;;;;4999571;28;20287;-77
2022/01/08 01:02:51;;;;;;;17.70;8.53;;;;;;;;;;5005354;28;20300;-77
2022/01/08 01:05:19;;;;;;;17.67;9.20;;;;;;;;;;5002207;28;20197;-76
2022/01/08 01:07:46;;;;;;;19.47;8.87;;;;;;;;;;5002376;28;20722;-79
2022/01/08 01:10:15;;;;;;;16.00;9.10;;;;;;;;;;4999377;28;20219;-76
2022/01/08 01:12:44;;;;;;;19.30;8.30;;;;;;;;;;4999294;28;20619;-76
2022/01/08 01:15:12;;;;;;;17.00;9.30;;;;;;;;;;5005181;28;20335;-77
2022/01/08 01:17:39;;;;;;;17.53;9.03;;;;;;;;;;5002460;28;20283;-77
2022/01/08 01:20:08;;;;;;;16.20;9.03;;;;;;;;;;5000496;28;20396;-77
2022/01/08 01:22:44;;;;;;;17.37;8.83;;;;;;;;;;4999044;28;20327;-77
2022/01/08 01:25:15;;;;;;;19.13;9.43;;;;;;;;;;4999132;28;20406;-77
2022/01/08 01:27:58;;;;;;;17.37;8.10;;;;;;;;;;5002337;28;20205;-77
2022/01/08 01:30:49;;;;;;;17.13;8.33;;;;;;;;;;5001284;28;20231;-77
2022/01/08 01:41:51;;;;;;;14.83;7.77;;;;;;;;;;4968523;28;20220;-77
2022/01/08 01:47:05;;;;;;;18.93;8.73;;;;;;;;;;5003090;28;20227;-77
2022/01/08 01:49:33;;;;;;;17.07;8.53;;;;;;;;;;4998485;28;20233;-77
2022/01/08 01:52:00;;;;;;;17.93;9.13;;;;;;;;;;4999501;28;20301;-77
2022/01/08 01:54:28;;;;;;;18.57;8.17;;;;;;;;;;4999428;28;20283;-77
2022/01/08 01:56:57;;;;;;;16.67;7.80;;;;;;;;;;4999667;28;20715;-77
2022/01/08 01:59:25;;;;;;;18.27;8.27;;;;;;;;;;5000412;28;20497;-76
2022/01/08 02:01:53;;;;;;;16.37;8.13;;;;;;;;;;4999317;28;20568;-77
2022/01/08 02:04:20;;;;;;;15.00;7.73;;;;;;;;;;4999505;28;20245;-77
2022/01/08 02:06:47;;;;;;;14.57;8.03;;;;;;;;;;4996584;28;20224;-78
2022/01/08 02:09:14;;;;;;;19.37;9.43;;;;;;;;;;4999388;28;20420;-78
2022/01/08 02:11:57;;;;;;;23.63;9.53;;;;;;;;;;4999723;28;20232;-77
2022/01/08 02:14:26;;;;;;;27.20;10.13;;;;;;;;;;4998207;28;20292;-77
2022/01/08 02:16:53;;;;;;;23.90;9.77;;;;;;;;;;5000675;28;20252;-78
2022/01/08 02:19:20;;;;;;;27.03;9.67;;;;;;;;;;4996778;28;20287;-77
2022/01/08 02:21:50;;;;;;;23.30;9.67;;;;;;;;;;5000064;28;20204;-77
2022/01/08 02:24:17;;;;;;;23.40;9.37;;;;;;;;;;4998665;28;20206;-78
2022/01/08 02:26:44;;;;;;;18.87;8.93;;;;;;;;;;5000006;28;20220;-77
2022/01/08 02:29:12;;;;;;;31.67;11.53;;;;;;;;;;5000013;28;20390;-78
2022/01/08 02:31:39;;;;;;;29.77;10.60;;;;;;;;;;4998334;28;20200;-77
2022/01/08 02:34:06;;;;;;;21.60;9.03;;;;;;;;;;4996364;28;20216;-78
2022/01/08 02:36:34;;;;;;;17.33;8.90;;;;;;;;;;4998664;28;20220;-77
2022/01/08 02:39:03;;;;;;;17.63;8.90;;;;;;;;;;5002122;28;20212;-77
2022/01/08 02:41:30;;;;;;;19.10;8.50;;;;;;;;;;5002062;28;20211;-77
2022/01/08 02:43:57;;;;;;;19.67;8.07;;;;;;;;;;5003861;28;20201;-77
2022/01/08 02:46:24;;;;;;;20.57;8.97;;;;;;;;;;5001244;28;20252;-76
2022/01/08 02:48:51;;;;;;;22.77;9.73;;;;;;;;;;5001724;28;20312;-77
2022/01/08 02:51:19;;;;;;;17.37;8.13;;;;;;;;;;5003390;28;20253;-77
2022/01/08 02:53:46;;;;;;;16.67;7.87;;;;;;;;;;4991129;28;20299;-77
2022/01/08 02:56:14;;;;;;;20.53;8.90;;;;;;;;;;4996842;28;20300;-77
2022/01/08 02:58:41;;;;;;;20.03;8.93;;;;;;;;;;4993291;28;20583;-76
2022/01/08 03:01:09;;;;;;;18.97;8.23;;;;;;;;;;4995224;28;20567;-77
2022/01/08 03:03:36;;;;;;;20.97;9.07;;;;;;;;;;4991754;28;20212;-77
2022/01/08 03:06:03;;;;;;;15.07;7.83;;;;;;;;;;4992149;28;20228;-77
2022/01/08 03:08:30;;;;;;;13.63;7.20;;;;;;;;;;4994804;28;20323;-76
2022/01/08 03:10:57;;;;;;;19.93;7.77;;;;;;;;;;4995718;28;20231;-77
2022/01/08 03:13:26;;;;;;;15.60;7.33;;;;;;;;;;5005247;28;20210;-77
2022/01/08 03:15:53;;;;;;;18.50;7.53;;;;;;;;;;5007038;28;20224;-77
2022/01/08 03:18:21;;;;;;;18.47;7.60;;;;;;;;;;5004072;28;20200;-77
2022/01/08 03:21:01;;;;;;;26.47;7.57;;;;;;;;;;5002804;28;20242;-77
2022/01/08 03:23:36;;;;;;;15.93;7.60;;;;;;;;;;5000854;28;20200;-77
2022/01/08 03:26:03;;;;;;;17.63;7.67;;;;;;;;;;4999192;28;20228;-77
2022/01/08 03:28:32;;;;;;;17.57;7.63;;;;;;;;;;5003283;28;20222;-76
2022/01/08 03:30:59;;;;;;;17.17;6.23;;;;;;;;;;4999735;28;20208;-77
2022/01/08 03:33:27;;;;;;;16.87;7.33;;;;;;;;;;4995583;28;20215;-77
2022/01/08 03:35:54;;;;;;;16.13;6.93;;;;;;;;;;5002557;28;20225;-77
2022/01/08 03:38:21;;;;;;;15.97;7.03;;;;;;;;;;5001532;28;20215;-77
2022/01/08 03:40:48;;;;;;;15.50;6.83;;;;;;;;;;5004630;28;20204;-77
2022/01/08 03:43:15;;;;;;;13.77;6.87;;;;;;;;;;5018672;28;20273;-77
2022/01/08 03:45:44;;;;;;;15.47;6.60;;;;;;;;;;5014817;28;20223;-78
2022/01/08 03:48:27;;;;;;;14.20;7.07;;;;;;;;;;4999933;28;20625;-77
2022/01/08 03:50:55;;;;;;;11.87;5.47;;;;;;;;;;4998296;28;20271;-77
2022/01/08 03:53:22;;;;;;;17.57;6.60;;;;;;;;;;4998899;28;20209;-77
2022/01/08 03:55:50;;;;;;;18.17;6.47;;;;;;;;;;4999073;28;20294;-77
2022/01/08 03:58:18;;;;;;;13.43;6.33;;;;;;;;;;4999633;28;20201;-77
2022/01/08 04:00:46;;;;;;;11.93;6.10;;;;;;;;;;5002277;28;20200;-77
2022/01/08 04:03:18;;;;;;;14.57;6.17;;;;;;;;;;4999141;28;20667;-77
2022/01/08 04:05:45;;;;;;;14.83;6.50;;;;;;;;;;5002957;28;20315;-77
2022/01/08 04:08:12;;;;;;;12.00;5.80;;;;;;;;;;4998777;28;20214;-77
2022/01/08 04:10:39;;;;;;;19.77;7.27;;;;;;;;;;5002161;28;20242;-77
2022/01/08 04:13:11;;;;;;;12.50;6.20;;;;;;;;;;4998623;28;20217;-77
2022/01/08 04:15:41;;;;;;;14.33;7.33;;;;;;;;;;4999720;28;20232;-77
2022/01/08 04:18:10;;;;;;;17.17;7.70;;;;;;;;;;4999232;28;20870;-77
2022/01/08 04:20:47;;;;;;;19.90;7.90;;;;;;;;;;4999456;28;20307;-76
2022/01/08 04:23:17;;;;;;;15.80;7.20;;;;;;;;;;4998921;28;20206;-76
2022/01/08 04:25:44;;;;;;;21.57;8.37;;;;;;;;;;4998873;28;20382;-76
2022/01/08 04:28:11;;;;;;;21.90;8.10;;;;;;;;;;4997562;28;20303;-76
2022/01/08 04:30:39;;;;;;;22.50;8.13;;;;;;;;;;4997499;28;20252;-76
2022/01/08 04:33:06;;;;;;;17.10;7.07;;;;;;;;;;4996113;28;20208;-76
2022/01/08 04:35:35;;;;;;;17.47;7.53;;;;;;;;;;4997373;28;20224;-76
2022/01/08 04:38:02;;;;;;;16.93;6.20;;;;;;;;;;5000074;28;20204;-76
2022/01/08 04:40:29;;;;;;;14.77;6.67;;;;;;;;;;5001570;28;20210;-76
2022/01/08 04:42:56;;;;;;;19.77;8.07;;;;;;;;;;5000137;28;20287;-77
2022/01/08 04:45:28;;;;;;;17.13;7.67;;;;;;;;;;4999415;28;20221;-76
2022/01/08 04:47:55;;;;;;;17.07;7.47;;;;;;;;;;4999484;28;20208;-77
2022/01/08 04:50:22;;;;;;;18.27;6.97;;;;;;;;;;4998019;28;20316;-76
2022/01/08 04:52:51;;;;;;;14.70;6.00;;;;;;;;;;4997942;28;20200;-76
2022/01/08 04:55:19;;;;;;;3.57;2.07;;;;;;;;;;4995075;28;20196;-78
2022/01/08 04:57:46;;;;;;;9.07;3.87;;;;;;;;;;5001372;28;20207;-76
2022/01/08 05:00:14;;;;;;;11.20;3.83;;;;;;;;;;4999236;28;20236;-77
2022/01/08 05:02:41;;;;;;;7.13;3.40;;;;;;;;;;4997240;28;20204;-76
2022/01/08 05:05:08;;;;;;;7.30;3.30;;;;;;;;;;4997723;28;20223;-76
2022/01/08 05:07:36;;;;;;;5.67;2.63;;;;;;;;;;4997095;28;20461;-76
2022/01/08 05:10:04;;;;;;;7.07;3.13;;;;;;;;;;5000665;28;20235;-76
2022/01/08 05:12:31;;;;;;;7.33;2.57;;;;;;;;;;4999257;28;20206;-77
2022/01/08 05:15:01;;;;;;;6.20;2.40;;;;;;;;;;4997398;28;20200;-78
2022/01/08 05:17:31;;;;;;;4.27;2.40;;;;;;;;;;5001090;28;20212;-77
2022/01/08 05:20:01;;;;;;;4.93;2.70;;;;;;;;;;5000325;28;20727;-77
2022/01/08 05:22:31;;;;;;;6.70;3.03;;;;;;;;;;5002722;28;20212;-76
2022/01/08 05:24:58;;;;;;;7.00;3.00;;;;;;;;;;5001134;28;20660;-77
2022/01/08 05:27:27;;;;;;;6.13;3.30;;;;;;;;;;5000070;28;20315;-77
2022/01/08 05:29:55;;;;;;;6.67;3.17;;;;;;;;;;5001464;28;20217;-77
2022/01/08 05:32:22;;;;;;;8.20;3.47;;;;;;;;;;4997377;28;20220;-76
2022/01/08 05:34:50;;;;;;;8.03;3.57;;;;;;;;;;5001841;28;20601;-77
2022/01/08 05:37:17;;;;;;;7.80;3.50;;;;;;;;;;5000114;28;20319;-76
2022/01/08 05:39:45;;;;;;;7.77;3.77;;;;;;;;;;4998215;28;20242;-77
2022/01/08 05:42:12;;;;;;;7.87;3.40;;;;;;;;;;4996400;28;20201;-77
2022/01/08 05:44:41;;;;;;;7.93;3.57;;;;;;;;;;4994703;28;20200;-78
2022/01/08 05:47:08;;;;;;;9.60;3.63;;;;;;;;;;4998079;28;20229;-78
2022/01/08 05:49:35;;;;;;;11.77;4.40;;;;;;;;;;4992351;28;20228;-78
2022/01/08 05:52:02;;;;;;;9.50;4.33;;;;;;;;;;4991885;28;20745;-78
2022/01/08 05:54:30;;;;;;;7.57;3.80;;;;;;;;;;5001754;28;20197;-78
2022/01/08 05:56:58;;;;;;;9.37;4.47;;;;;;;;;;4999638;28;20586;-78
2022/01/08 05:59:26;;;;;;;10.53;4.37;;;;;;;;;;4996448;28;20218;-78
2022/01/08 06:01:55;;;;;;;8.50;3.97;;;;;;;;;;4991183;28;20278;-78
2022/01/08 06:04:22;;;;;;;8.50;4.37;;;;;;;;;;4987587;28;20714;-77
2022/01/08 06:06:49;;;;;;;10.77;4.77;;;;;;;;;;4990834;28;20234;-78
2022/01/08 06:09:17;;;;;;;11.30;5.07;;;;;;;;;;4989416;28;20259;-78
2022/01/08 06:11:44;;;;;;;10.77;4.73;;;;;;;;;;4989720;28;20715;-78
2022/01/08 06:14:11;;;;;;;16.40;5.87;;;;;;;;;;4992385;28;20204;-78
2022/01/08 06:16:38;;;;;;;15.13;6.80;;;;;;;;;;4992192;28;20231;-77
2022/01/08 06:19:08;;;;;;;13.17;5.83;;;;;;;;;;4991823;28;20228;-78
2022/01/08 06:21:36;;;;;;;14.63;6.67;;;;;;;;;;4997762;28;20211;-78
2022/01/08 06:24:03;;;;;;;13.97;5.83;;;;;;;;;;4992761;28;20216;-78
2022/01/08 06:26:30;;;;;;;15.93;5.60;;;;;;;;;;4991493;28;20220;-78
2022/01/08 06:28:57;;;;;;;15.13;6.20;;;;;;;;;;4988636;28;20215;-78
2022/01/08 06:31:25;;;;;;;18.70;6.77;;;;;;;;;;4987761;28;20235;-78
2022/01/08 06:33:52;;;;;;;16.47;6.10;;;;;;;;;;4985283;28;20208;-77
2022/01/08 06:36:23;;;;;;;16.60;7.17;;;;;;;;;;4989207;28;20490;-79
2022/01/08 06:38:50;;;;;;;16.20;7.17;;;;;;;;;;4990078;28;20346;-78
2022/01/08 06:41:17;;;;;;;16.20;7.50;;;;;;;;;;4990547;28;20221;-77
2022/01/08 06:43:44;;;;;;;17.13;7.23;;;;;;;;;;4989813;28;20204;-77
2022/01/08 06:46:12;;;;;;;21.47;7.53;;;;;;;;;;4993624;28;20228;-78
2022/01/08 06:48:40;;;;;;;21.77;7.57;;;;;;;;;;4995879;28;20303;-78
2022/01/08 06:51:07;;;;;;;17.17;7.30;;;;;;;;;;4999210;28;20232;-78
2022/01/08 06:53:36;;;;;;;14.43;7.00;;;;;;;;;;4999763;28;20467;-79
2022/01/08 06:56:03;;;;;;;19.17;7.47;;;;;;;;;;5001406;28;20485;-78
2022/01/08 06:58:30;;;;;;;17.03;7.43;;;;;;;;;;4999757;28;20224;-78
2022/01/08 07:00:57;;;;;;;16.67;7.13;;;;;;;;;;4997336;28;20209;-78
2022/01/08 07:03:24;;;;;;;17.40;7.30;;;;;;;;;;4994883;28;20215;-78
2022/01/08 07:05:51;;;;;;;19.73;7.23;;;;;;;;;;4997495;28;20235;-78
2022/01/08 07:08:19;;;;;;;18.03;7.87;;;;;;;;;;4996825;28;20200;-79
2022/01/08 07:10:47;;;;;;;16.67;7.67;;;;;;;;;;4994995;28;20235;-78
2022/01/08 07:13:14;;;;;;;19.10;7.70;;;;;;;;;;4995319;28;20204;-78
2022/01/08 07:15:41;;;;;;;20.03;7.70;;;;;;;;;;4995660;28;20240;-78
2022/01/08 07:18:08;;;;;;;15.17;8.13;;;;;;;;;;4998858;28;20205;-78
2022/01/08 07:20:36;;;;;;;19.53;8.03;;;;;;;;;;4994070;28;20218;-78
2022/01/08 07:23:03;;;;;;;15.87;7.73;;;;;;;;;;4996105;28;20216;-77
2022/01/08 07:25:30;;;;;;;22.10;8.40;;;;;;;;;;4998026;28;20235;-78
2022/01/08 07:27:59;;;;;;;20.27;8.63;;;;;;;;;;4994333;28;20280;-78
2022/01/08 07:30:26;;;;;;;20.80;9.77;;;;;;;;;;4993476;28;20226;-77
2022/01/08 07:32:53;;;;;;;21.60;9.03;;;;;;;;;;4991899;28;20212;-78
2022/01/08 07:35:22;;;;;;;23.93;9.30;;;;;;;;;;4992491;28;20719;-77
2022/01/08 07:37:50;;;;;;;25.47;9.13;;;;;;;;;;4996464;28;20200;-78
2022/01/08 07:40:17;;;;;;;22.43;9.03;;;;;;;;;;4993198;28;20197;-77
2022/01/08 07:42:45;;;;;;;20.93;9.57;;;;;;;;;;4989692;28;20213;-78
2022/01/08 07:45:13;;;;;;;29.47;10.10;;;;;;;;;;4993830;28;20200;-77
2022/01/08 07:47:40;;;;;;;23.33;9.47;;;;;;;;;;4994790;28;20338;-78
2022/01/08 07:50:08;;;;;;;26.37;10.67;;;;;;;;;;4990060;28;20252;-78
2022/01/08 07:52:35;;;;;;;25.33;10.57;;;;;;;;;;4993254;28;20486;-78
2022/01/08 07:55:03;;;;;;;27.83;11.13;;;;;;;;;;4988815;28;20253;-76
2022/01/08 07:57:30;;;;;;;29.00;11.93;;;;;;;;;;4995759;28;20200;-76
2022/01/08 07:59:57;;;;;;;31.30;11.70;;;;;;;;;;4993555;28;20898;-78
2022/01/08 08:02:26;;;;;;;33.13;12.13;;;;;;;;;;4994946;28;20200;-77
2022/01/08 08:04:53;;;;;;;30.60;11.57;;;;;;;;;;4996661;28;20223;-77
2022/01/08 08:07:29;;;;;;;31.23;10.93;;;;;;;;;;4995182;28;20346;-76
2022/01/08 08:09:56;;;;;;;31.03;11.73;;;;;;;;;;4992153;28;20196;-77
2022/01/08 08:12:24;;;;;;;36.43;13.87;;;;;;;;;;4994375;28;20217;-77
2022/01/08 08:14:51;;;;;;;37.37;15.67;;;;;;;;;;4997311;28;20204;-77
2022/01/08 08:17:18;;;;;;;35.37;13.73;;;;;;;;;;4993706;28;20671;-76
2022/01/08 08:19:47;;;;;;;24.20;9.87;;;;;;;;;;4993941;28;20686;-76
2022/01/08 08:22:14;;;;;;;30.77;12.63;;;;;;;;;;4993468;28;20199;-77
2022/01/08 08:24:41;;;;;;;26.80;10.37;;;;;;;;;;4994188;28;20979;-77
2022/01/08 08:27:08;;;;;;;25.93;10.73;;;;;;;;;;4990702;28;20230;-77
2022/01/08 08:29:38;;;;;;;32.90;12.50;;;;;;;;;;4991420;28;20204;-77
2022/01/08 08:32:05;;;;;;;28.43;11.90;;;;;;;;;;4993833;28;21008;-77
2022/01/08 08:34:32;;;;;;;26.73;9.67;;;;;;;;;;4995714;28;20569;-77
2022/01/08 08:37:01;;;;;;;23.70;9.20;;;;;;;;;;4997569;28;20234;-76
2022/01/08 08:39:28;;;;;;;28.07;9.90;;;;;;;;;;4995184;28;20201;-77
2022/01/08 08:41:56;;;;;;;25.80;9.27;;;;;;;;;;4992533;28;20200;-77
2022/01/08 08:44:23;;;;;;;21.00;9.27;;;;;;;;;;4993381;28;20205;-76
2022/01/08 08:46:50;;;;;;;23.93;9.20;;;;;;;;;;4989056;28;20231;-77
2022/01/08 08:49:17;;;;;;;22.27;8.47;;;;;;;;;;4992764;28;20196;-77
2022/01/08 08:51:44;;;;;;;23.93;8.40;;;;;;;;;;4991514;28;20254;-77
2022/01/08 08:54:13;;;;;;;20.97;8.80;;;;;;;;;;4991421;28;20208;-77
2022/01/08 08:56:42;;;;;;;24.93;9.80;;;;;;;;;;4994296;28;20311;-77
2022/01/08 08:59:09;;;;;;;33.80;10.60;;;;;;;;;;4995697;28;20216;-77
2022/01/08 09:01:36;;;;;;;27.07;10.80;;;;;;;;;;4994621;28;20342;-77
2022/01/08 09:04:04;;;;;;;30.50;11.37;;;;;;;;;;4992663;28;20212;-77
2022/01/08 09:06:31;;;;;;;33.50;12.20;;;;;;;;;;4991343;28;20606;-77
2022/01/08 09:08:58;;;;;;;32.10;12.30;;;;;;;;;;4990515;28;20229;-77
2022/01/08 09:11:27;;;;;;;27.80;11.57;;;;;;;;;;4989917;28;23012;-76
2022/01/08 09:13:55;;;;;;;26.93;10.47;;;;;;;;;;4992028;28;20215;-76
2022/01/08 09:16:22;;;;;;;24.13;10.40;;;;;;;;;;4995348;28;20294;-76
2022/01/08 09:18:49;;;;;;;25.93;10.33;;;;;;;;;;4994696;28;20307;-76
2022/01/08 09:21:16;;;;;;;24.97;10.17;;;;;;;;;;4991990;28;20288;-76
2022/01/08 09:23:43;;;;;;;30.67;11.70;;;;;;;;;;4993109;28;20212;-76
2022/01/08 09:26:11;;;;;;;26.40;10.33;;;;;;;;;;4987676;28;20228;-76
2022/01/08 09:28:39;;;;;;;29.20;11.47;;;;;;;;;;4999270;28;20287;-77
2022/01/08 09:31:07;;;;;;;29.33;11.47;;;;;;;;;;4992239;28;20287;-76
2022/01/08 09:33:35;;;;;;;30.13;12.60;;;;;;;;;;4991046;28;20645;-76
2022/01/08 09:36:03;;;;;;;27.53;11.97;;;;;;;;;;4988640;28;20606;-76
2022/01/08 09:38:30;;;;;;;30.00;12.80;;;;;;;;;;4990031;28;20677;-76
2022/01/08 09:40:57;;;;;;;26.73;11.73;;;;;;;;;;4990953;28;20208;-76
2022/01/08 09:43:24;;;;;;;33.07;12.90;;;;;;;;;;4991166;28;21080;-77
2022/01/08 09:45:53;;;;;;;36.23;14.97;;;;;;;;;;4995248;28;20601;-77
2022/01/08 09:48:20;;;;;;;30.63;12.33;;;;;;;;;;4995074;28;20205;-77
2022/01/08 09:50:47;;;;;;;31.97;13.63;;;;;;;;;;4998523;28;20204;-78
2022/01/08 09:53:15;;;;;;;31.33;12.57;;;;;;;;;;5003947;28;20299;-78
2022/01/08 09:55:42;;;;;;;33.23;12.63;;;;;;;;;;5004885;28;20303;-77
2022/01/08 09:58:09;;;;;;;28.30;11.23;;;;;;;;;;5009391;28;20335;-78
2022/01/08 10:00:37;;;;;;;36.30;12.63;;;;;;;;;;5007688;28;20220;-77
2022/01/08 10:03:16;;;;;;;29.50;12.70;;;;;;;;;;5004364;28;20300;-77
2022/01/08 10:05:47;;;;;;;35.90;12.73;;;;;;;;;;5011586;23;20335;-82
2022/01/08 10:08:15;;;;;;;36.90;15.37;;;;;;;;;;4996218;28;20629;-81
2022/01/08 10:10:55;;;;;;;31.80;14.03;;;;;;;;;;4993570;28;20205;-81
2022/01/08 10:13:24;;;;;;;32.30;12.47;;;;;;;;;;4993747;28;20220;-82
2022/01/08 10:18:39;;;;;;;26.60;11.07;;;;;;;;;;4992353;28;20283;-82
2022/01/08 10:21:16;;;;;;;23.73;10.37;;;;;;;;;;4989446;28;20288;-81
2022/01/08 10:23:44;;;;;;;25.03;10.77;;;;;;;;;;4993828;28;20209;-81
2022/01/08 10:26:13;;;;;;;28.67;13.40;;;;;;;;;;4988687;28;20224;-83
2022/01/08 10:28:41;;;;;;;31.37;14.90;;;;;;;;;;4994170;28;20205;-83
2022/01/08 10:31:10;;;;;;;38.00;16.60;;;;;;;;;;4994416;28;20594;-83
2022/01/08 10:33:39;;;;;;;53.87;22.53;;;;;;;;;;4990227;28;20209;-81
2022/01/08 10:36:07;;;;;;;28.53;12.77;;;;;;;;;;4990413;28;20239;-83
2022/01/08 10:38:34;;;;;;;24.50;9.47;;;;;;;;;;4989420;28;20205;-83
2022/01/08 10:41:02;;;;;;;16.97;6.03;;;;;;;;;;4990424;28;20241;-81
2022/01/08 10:43:30;;;;;;;22.03;8.57;;;;;;;;;;4990231;28;20209;-81
2022/01/08 10:46:08;;;;;;;11.30;4.70;;;;;;;;;;4987089;28;20240;-82
2022/01/08 10:48:35;;;;;;;18.50;5.10;;;;;;;;;;4994966;28;20209;-82
2022/01/08 10:51:11;;;;;;;14.33;4.13;;;;;;;;;;4993723;28;20260;-82
2022/01/08 10:53:54;;;;;;;15.27;4.10;;;;;;;;;;4993516;28;20268;-81
2022/01/08 10:56:22;;;;;;;8.33;3.43;;;;;;;;;;4989640;28;20235;-81
2022/01/08 10:58:52;;;;;;;13.60;4.50;;;;;;;;;;4995743;28;20205;-82
2022/01/08 11:01:34;;;;;;;12.33;5.10;;;;;;;;;;4990477;28;20205;-81
2022/01/08 11:04:01;;;;;;;15.23;4.37;;;;;;;;;;4990603;28;20715;-82
2022/01/08 11:06:30;;;;;;;13.10;4.40;;;;;;;;;;4987921;28;20228;-83
2022/01/08 11:09:01;;;;;;;13.33;3.67;;;;;;;;;;4987932;28;20761;-82
2022/01/08 11:11:30;;;;;;;16.93;3.77;;;;;;;;;;4988031;28;20232;-83
2022/01/08 11:14:04;;;;;;;10.13;3.27;;;;;;;;;;4988016;28;20718;-83
2022/01/08 11:16:31;;;;;;;9.87;3.80;;;;;;;;;;4987759;28;20225;-83
2022/01/08 11:19:00;;;;;;;19.80;5.57;;;;;;;;;;4986301;28;20247;-83
2022/01/08 11:21:29;;;;;;;11.90;4.43;;;;;;;;;;4989819;28;20239;-81
2022/01/08 11:23:59;;;;;;;10.00;4.07;;;;;;;;;;4988439;28;20213;-82
2022/01/08 11:26:26;;;;;;;15.43;3.63;;;;;;;;;;4985833;28;20229;-82
2022/01/08 11:28:57;;;;;;;10.07;4.70;;;;;;;;;;4991003;28;20201;-82
2022/01/08 11:31:27;;;;;;;11.37;4.27;;;;;;;;;;4988670;28;20344;-82
2022/01/08 11:33:57;;;;;;;10.27;4.27;;;;;;;;;;4984232;28;20497;-82
2022/01/08 11:36:25;;;;;;;14.13;4.80;;;;;;;;;;4985827;28;20312;-81
2022/01/08 11:38:54;;;;;;;11.30;4.13;;;;;;;;;;4981514;28;20201;-83
2022/01/08 11:41:23;;;;;;;10.90;5.20;;;;;;;;;;4985995;28;20671;-82
2022/01/08 11:43:51;;;;;;;11.63;3.37;;;;;;;;;;4983642;28;20216;-82
2022/01/08 11:46:19;;;;;;;11.10;4.20;;;;;;;;;;4988169;28;20259;-83
2022/01/08 11:48:47;;;;;;;14.03;6.83;;;;;;;;;;4985868;28;20308;-82
2022/01/08 11:51:16;;;;;;;13.37;4.63;;;;;;;;;;4991328;28;20737;-81
2022/01/08 11:53:46;;;;;;;13.33;4.60;;;;;;;;;;4991902;28;20199;-81
2022/01/08 11:56:24;;;;;;;8.30;3.07;;;;;;;;;;4989832;28;20244;-81
2022/01/08 11:59:03;;;;;;;8.37;3.50;;;;;;;;;;4985138;28;20205;-81
2022/01/08 12:01:30;;;;;;;12.03;4.57;;;;;;;;;;4992386;28;20288;-81
2022/01/08 12:03:59;;;;;;;10.50;3.77;;;;;;;;;;4988740;28;20209;-82
2022/01/08 12:06:38;;;;;;;7.43;3.47;;;;;;;;;;4991439;28;20609;-80
2022/01/08 12:09:19;;;;;;;24.33;9.13;;;;;;;;;;4990970;28;20576;-82
2022/01/08 12:11:55;;;;;;;10.23;4.40;;;;;;;;;;4990554;28;20225;-82
2022/01/08 12:14:26;;;;;;;15.80;4.40;;;;;;;;;;4989033;28;20287;-81
2022/01/08 12:16:54;;;;;;;15.47;5.23;;;;;;;;;;4990603;28;20248;-81
2022/01/08 12:19:32;;;;;;;8.23;3.17;;;;;;;;;;4991009;28;20654;-82
2022/01/08 12:21:59;;;;;;;11.43;4.17;;;;;;;;;;4992693;28;20300;-83
2022/01/08 12:24:33;;;;;;;10.60;4.60;;;;;;;;;;4983631;28;21872;-83
2022/01/08 12:27:02;;;;;;;13.43;5.00;;;;;;;;;;4986767;28;20237;-83
2022/01/08 12:29:33;;;;;;;12.90;3.70;;;;;;;;;;4982203;28;20209;-83
2022/01/08 12:32:18;;;;;;;13.83;4.30;;;;;;;;;;4984629;28;20263;-82
2022/01/08 12:34:50;;;;;;;12.13;4.87;;;;;;;;;;4984914;28;20244;-83
2022/01/08 12:37:19;;;;;;;13.37;6.20;;;;;;;;;;4983212;28;20229;-83
2022/01/08 12:39:54;;;;;;;11.47;4.60;;;;;;;;;;4981828;28;20212;-84
2022/01/08 12:42:39;;;;;;;14.07;5.63;;;;;;;;;;4983365;28;20218;-83
2022/01/08 12:45:15;;;;;;;10.00;4.70;;;;;;;;;;4983158;28;20325;-84
2022/01/08 12:47:46;;;;;;;12.83;3.93;;;;;;;;;;4985611;28;20669;-84
2022/01/08 12:50:24;;;;;;;10.83;3.73;;;;;;;;;;4986945;28;20201;-82
2022/01/08 12:53:27;;;;;;;18.33;3.93;;;;;;;;;;4985103;28;20281;-84
2022/01/08 12:56:14;;;;;;;9.87;3.67;;;;;;;;;;4951274;29;20233;-84
2022/01/08 12:58:52;;;;;;;12.03;4.60;;;;;;;;;;4984877;28;20713;-81
2022/01/08 13:01:24;;;;;;;6.90;2.47;;;;;;;;;;4988806;28;20216;-82
2022/01/08 13:03:53;;;;;;;9.57;3.00;;;;;;;;;;4984248;28;20224;-84
2022/01/08 13:06:23;;;;;;;14.90;5.57;;;;;;;;;;4986196;28;20797;-82
2022/01/08 13:08:53;;;;;;;14.40;2.83;;;;;;;;;;5001217;28;20210;-82
2022/01/08 13:11:21;;;;;;;11.83;2.77;;;;;;;;;;4999641;28;20281;-80
2022/01/08 13:13:55;;;;;;;6.60;2.80;;;;;;;;;;4984849;28;20230;-84
2022/01/08 13:16:28;;;;;;;6.20;2.80;;;;;;;;;;4981182;28;20245;-83
2022/01/08 13:18:56;;;;;;;9.87;3.30;;;;;;;;;;4988329;28;20241;-84
2022/01/08 13:21:25;;;;;;;8.40;3.13;;;;;;;;;;4987094;28;20209;-83
2022/01/08 13:23:56;;;;;;;13.03;3.63;;;;;;;;;;4987310;28;20206;-83
2022/01/08 13:26:45;;;;;;;7.17;2.77;;;;;;;;;;4990377;28;20235;-84
2022/01/08 13:29:28;;;;;;;8.80;4.47;;;;;;;;;;4985463;28;20201;-82
2022/01/08 13:34:45;;;;;;;28.90;12.83;;;;;;;;;;4985618;28;20213;-82
2022/01/08 13:37:13;;;;;;;6.60;3.30;;;;;;;;;;4987070;28;20212;-84
2022/01/08 13:39:49;;;;;;;6.87;2.90;;;;;;;;;;4991597;28;20638;-83
2022/01/08 13:42:19;;;;;;;6.30;2.63;;;;;;;;;;4988480;28;20287;-83
2022/01/08 13:44:49;;;;;;;6.60;2.77;;;;;;;;;;4989642;28;20557;-83
2022/01/08 13:47:27;;;;;;;8.03;3.90;;;;;;;;;;4990995;28;20659;-83
2022/01/08 13:50:17;;;;;;;24.50;12.67;;;;;;;;;;4984652;28;20296;-84
2022/01/08 13:52:53;;;;;;;23.77;14.13;;;;;;;;;;4980763;28;20324;-83
2022/01/08 13:55:27;;;;;;;8.93;3.77;;;;;;;;;;4980909;28;20240;-82
2022/01/08 13:58:10;;;;;;;12.20;3.50;;;;;;;;;;4981293;28;20222;-82
2022/01/08 14:00:43;;;;;;;6.13;2.83;;;;;;;;;;4983296;28;20216;-82
2022/01/08 14:03:18;;;;;;;23.97;8.50;;;;;;;;;;4986013;28;20212;-83
2022/01/08 14:05:45;;;;;;;11.60;4.57;;;;;;;;;;4987123;28;20250;-83
2022/01/08 14:08:15;;;;;;;8.20;4.10;;;;;;;;;;4987174;28;20585;-83
2022/01/08 14:10:43;;;;;;;7.87;2.83;;;;;;;;;;4985068;28;20201;-84
2022/01/08 14:13:11;;;;;;;15.23;5.73;;;;;;;;;;4989549;28;20256;-83
2022/01/08 14:15:41;;;;;;;13.60;7.40;;;;;;;;;;4985158;28;20229;-83
2022/01/08 14:18:09;;;;;;;9.83;3.00;;;;;;;;;;4988393;28;20304;-83
2022/01/08 14:20:37;;;;;;;11.17;6.17;;;;;;;;;;4987864;28;20594;-84
2022/01/08 14:23:10;;;;;;;6.10;3.20;;;;;;;;;;4987019;28;20259;-83
2022/01/08 14:25:39;;;;;;;6.00;3.10;;;;;;;;;;4986466;28;20974;-82
2022/01/08 14:28:20;;;;;;;7.70;2.90;;;;;;;;;;4989574;28;20293;-80
2022/01/08 14:30:49;;;;;;;5.83;2.97;;;;;;;;;;4978282;28;20213;-81
2022/01/08 14:33:18;;;;;;;7.87;2.77;;;;;;;;;;4987468;28;20216;-81
2022/01/08 14:35:48;;;;;;;8.73;3.40;;;;;;;;;;4982638;28;20921;-81
2022/01/08 14:38:19;;;;;;;7.40;3.00;;;;;;;;;;4987363;28;20231;-83
2022/01/08 14:40:51;;;;;;;6.03;3.00;;;;;;;;;;4983925;28;20205;-83
2022/01/08 14:43:24;;;;;;;31.90;11.77;;;;;;;;;;4988867;28;20212;-82
2022/01/08 14:46:04;;;;;;;12.20;4.93;;;;;;;;;;4992285;28;20232;-81
2022/01/08 14:48:32;;;;;;;5.23;2.90;;;;;;;;;;4999464;28;20204;-79
2022/01/08 14:51:05;;;;;;;33.73;15.83;;;;;;;;;;4996777;28;20657;-81
2022/01/08 14:53:38;;;;;;;32.60;14.50;;;;;;;;;;4981461;28;20324;-82
2022/01/08 14:56:07;;;;;;;25.93;13.70;;;;;;;;;;4980933;28;20249;-82
2022/01/08 14:58:41;;;;;;;45.30;20.10;;;;;;;;;;4987732;28;20209;-81